Time;durP1;ratioP1;P1;durP2;ratioP2;P2;SDS_P1;SDS_P2;PMS_P1;PMS_P2;Temp;Humidity;BMP_temperature;BMP_pressure;BME280_temperature;BME280_humidity;BME280_pressure;Samples;Min_cycle;Max_cycle;Signal;HPM_P1;HPM_P2
2021/10/06 00:00:47;;;;;;;5.38;1.60;;;14.10;99.90;;;;;;2084833;28;20037;-69
2021/10/06 00:01:47;;;;;;;4.15;1.48;;;14.10;99.90;;;;;;2079683;28;20021;-70
2021/10/06 00:02:48;;;;;;;3.53;1.73;;;14.10;99.90;;;;;;2079331;28;20025;-70
2021/10/06 00:03:49;;;;;;;7.93;1.45;;;14.10;99.90;;;;;;2079756;28;20040;-70
2021/10/06 00:04:49;;;;;;;6.43;1.63;;;14.10;99.90;;;;;;2079293;28;20107;-70
2021/10/06 00:05:50;;;;;;;5.57;2.20;;;14.10;99.90;;;;;;2079901;28;20044;-69
2021/10/06 00:06:50;;;;;;;4.45;1.80;;;14.10;99.90;;;;;;2084366;28;20028;-70
2021/10/06 00:07:51;;;;;;;4.78;1.35;;;14.10;99.90;;;;;;2082085;28;20026;-70
2021/10/06 00:08:52;;;;;;;9.45;2.17;;;14.00;99.90;;;;;;2078501;28;20033;-69
2021/10/06 00:09:52;;;;;;;7.40;1.98;;;14.00;99.90;;;;;;2078983;28;20171;-69
2021/10/06 00:10:53;;;;;;;4.85;1.65;;;14.00;99.90;;;;;;2079692;28;20121;-70
2021/10/06 00:11:53;;;;;;;3.67;1.33;;;14.00;99.90;;;;;;2081183;28;20021;-70
2021/10/06 00:12:54;;;;;;;5.72;1.60;;;14.00;99.90;;;;;;2087964;28;20473;-70
2021/10/06 00:13:55;;;;;;;2.42;1.10;;;13.90;99.90;;;;;;2086110;28;20123;-70
2021/10/06 00:14:55;;;;;;;3.95;1.20;;;14.00;99.90;;;;;;2087632;28;20025;-70
2021/10/06 00:15:56;;;;;;;6.28;1.77;;;14.00;99.90;;;;;;2083789;28;20084;-70
2021/10/06 00:16:57;;;;;;;5.63;1.75;;;13.90;99.90;;;;;;2080732;28;20025;-70
2021/10/06 00:17:58;;;;;;;5.93;1.83;;;13.90;99.90;;;;;;2080845;28;20057;-70
2021/10/06 00:18:59;;;;;;;5.95;1.58;;;13.90;99.90;;;;;;2080063;28;20032;-69
2021/10/06 00:19:59;;;;;;;7.78;1.58;;;13.80;99.90;;;;;;2081121;28;20022;-70
2021/10/06 00:21:00;;;;;;;6.22;1.88;;;13.90;99.90;;;;;;2080677;28;20106;-70
2021/10/06 00:22:00;;;;;;;4.55;1.52;;;13.80;99.90;;;;;;2081045;28;20095;-70
2021/10/06 00:23:01;;;;;;;3.83;1.30;;;13.80;99.90;;;;;;2080584;28;20386;-69
2021/10/06 00:24:02;;;;;;;6.25;1.40;;;13.80;99.90;;;;;;2086301;28;20028;-70
2021/10/06 00:25:03;;;;;;;4.60;1.58;;;13.80;99.90;;;;;;2089200;28;20032;-69
2021/10/06 00:26:04;;;;;;;6.07;1.50;;;13.80;99.90;;;;;;2089001;28;20028;-70
2021/10/06 00:27:05;;;;;;;4.20;1.63;;;13.80;99.90;;;;;;2085157;28;20021;-69
2021/10/06 00:28:06;;;;;;;3.92;1.58;;;13.80;99.90;;;;;;2088953;28;20043;-70
2021/10/06 00:29:08;;;;;;;3.72;1.70;;;13.80;99.90;;;;;;2081398;28;20032;-69
2021/10/06 00:30:09;;;;;;;5.80;1.65;;;13.80;99.90;;;;;;2080770;28;20470;-69
2021/10/06 00:31:10;;;;;;;3.53;1.30;;;13.80;99.90;;;;;;2080725;28;20060;-69
2021/10/06 00:32:10;;;;;;;4.28;1.55;;;13.80;99.90;;;;;;2081073;28;20022;-69
2021/10/06 00:33:11;;;;;;;6.22;2.00;;;13.70;99.90;;;;;;2081087;28;20053;-70
2021/10/06 00:34:11;;;;;;;4.13;1.88;;;13.80;99.90;;;;;;2080841;28;20026;-69
2021/10/06 00:35:12;;;;;;;6.38;1.85;;;13.80;99.90;;;;;;2080879;28;20533;-70
2021/10/06 00:36:12;;;;;;;3.90;1.52;;;13.70;99.90;;;;;;2083974;28;20064;-69
2021/10/06 00:37:13;;;;;;;6.32;1.77;;;13.70;99.90;;;;;;2085041;28;20032;-69
2021/10/06 00:38:14;;;;;;;5.82;1.40;;;13.70;99.90;;;;;;2085891;28;20032;-69
2021/10/06 00:39:14;;;;;;;6.57;1.60;;;13.70;99.90;;;;;;2080719;28;20033;-70
2021/10/06 00:40:15;;;;;;;6.00;1.52;;;13.70;99.90;;;;;;2080209;28;20013;-70
2021/10/06 00:41:15;;;;;;;4.43;1.73;;;13.60;99.90;;;;;;2083932;28;20052;-70
2021/10/06 00:42:16;;;;;;;5.63;1.77;;;13.60;99.90;;;;;;2080526;28;20105;-69
2021/10/06 00:43:17;;;;;;;4.65;1.40;;;13.60;99.90;;;;;;2081099;28;20026;-70
2021/10/06 00:44:20;;;;;;;6.30;1.58;;;13.60;99.90;;;;;;2080708;28;20025;-69
2021/10/06 00:45:20;;;;;;;6.28;1.85;;;13.60;99.90;;;;;;2080812;28;20029;-70
2021/10/06 00:46:21;;;;;;;8.70;1.50;;;13.60;99.90;;;;;;2080782;28;20018;-70
2021/10/06 00:47:22;;;;;;;5.63;1.63;;;13.60;99.90;;;;;;2080590;28;20108;-70
2021/10/06 00:48:23;;;;;;;3.53;1.65;;;13.60;99.90;;;;;;2084313;28;20024;-69
2021/10/06 00:49:24;;;;;;;7.13;1.75;;;13.60;99.90;;;;;;2088369;28;20485;-70
2021/10/06 00:50:24;;;;;;;4.22;1.58;;;13.60;99.90;;;;;;2080232;28;20024;-69
2021/10/06 00:51:25;;;;;;;4.35;1.30;;;13.50;99.90;;;;;;2083671;28;20118;-69
2021/10/06 00:52:25;;;;;;;5.03;1.23;;;13.50;99.90;;;;;;2088928;28;20415;-70
2021/10/06 00:53:27;;;;;;;5.20;1.55;;;13.50;99.90;;;;;;2081988;28;20041;-70
2021/10/06 00:54:27;;;;;;;6.75;1.50;;;13.50;99.90;;;;;;2081347;28;20077;-70
2021/10/06 00:55:28;;;;;;;3.03;1.50;;;13.50;99.90;;;;;;2080762;28;20068;-70
2021/10/06 00:56:29;;;;;;;5.68;1.45;;;13.50;99.90;;;;;;2080631;28;20025;-70
2021/10/06 00:57:29;;;;;;;5.25;1.73;;;13.50;99.90;;;;;;2085026;28;20029;-70
2021/10/06 00:58:30;;;;;;;4.88;1.58;;;13.50;99.90;;;;;;2079936;28;20030;-70
2021/10/06 00:59:31;;;;;;;3.70;1.65;;;13.50;99.90;;;;;;2084273;28;20076;-70
2021/10/06 01:00:31;;;;;;;4.95;1.55;;;13.50;99.90;;;;;;2081110;28;20078;-70
2021/10/06 01:01:32;;;;;;;5.05;1.95;;;13.50;99.90;;;;;;2080552;28;20024;-69
2021/10/06 01:02:33;;;;;;;5.90;1.70;;;13.50;99.90;;;;;;2084435;28;20073;-69
2021/10/06 01:03:33;;;;;;;4.60;1.73;;;13.50;99.90;;;;;;2089051;28;20063;-69
2021/10/06 01:04:34;;;;;;;4.15;1.40;;;13.50;99.90;;;;;;2082941;28;20029;-69
2021/10/06 01:05:36;;;;;;;3.53;1.48;;;13.50;99.90;;;;;;2081106;28;20029;-70
2021/10/06 01:06:38;;;;;;;6.15;1.30;;;13.50;99.90;;;;;;2089095;28;20021;-70
2021/10/06 01:07:39;;;;;;;7.53;1.60;;;13.50;99.90;;;;;;2084500;28;20478;-70
2021/10/06 01:08:40;;;;;;;4.82;1.55;;;13.40;99.90;;;;;;2088072;28;20033;-70
2021/10/06 01:09:41;;;;;;;5.95;1.45;;;13.40;99.90;;;;;;2081146;28;20034;-70
2021/10/06 01:10:42;;;;;;;4.13;1.45;;;13.40;99.90;;;;;;2080617;28;20040;-69
2021/10/06 01:11:43;;;;;;;5.95;1.85;;;13.40;99.90;;;;;;2080599;28;20025;-70
2021/10/06 01:12:44;;;;;;;5.28;1.75;;;13.40;99.90;;;;;;2083763;28;20045;-69
2021/10/06 01:13:45;;;;;;;4.97;1.58;;;13.40;99.90;;;;;;2080796;28;20108;-70
2021/10/06 01:14:47;;;;;;;4.65;1.83;;;13.40;99.90;;;;;;2082567;28;20030;-70
2021/10/06 01:15:48;;;;;;;3.45;1.13;;;13.40;99.90;;;;;;2080571;28;20109;-70
2021/10/06 01:16:49;;;;;;;6.55;1.48;;;13.40;99.90;;;;;;2080675;28;20076;-69
2021/10/06 01:17:50;;;;;;;4.07;1.15;;;13.40;99.90;;;;;;2079815;28;20108;-70
2021/10/06 01:18:50;;;;;;;3.28;1.63;;;13.30;99.90;;;;;;2079537;28;20036;-70
2021/10/06 01:19:51;;;;;;;3.72;1.50;;;13.30;99.90;;;;;;2080114;28;20036;-69
2021/10/06 01:20:52;;;;;;;5.30;1.83;;;13.30;99.90;;;;;;2085806;28;20040;-69
2021/10/06 01:21:54;;;;;;;7.05;1.50;;;13.30;99.90;;;;;;2088170;28;20032;-69
2021/10/06 01:22:55;;;;;;;6.57;1.80;;;13.30;99.90;;;;;;2086928;28;20029;-70
2021/10/06 01:23:55;;;;;;;3.70;1.30;;;13.30;99.90;;;;;;2081552;28;20041;-69
2021/10/06 01:24:56;;;;;;;4.40;1.50;;;13.30;99.90;;;;;;2080624;28;20037;-69
2021/10/06 01:25:57;;;;;;;5.60;1.48;;;13.30;99.90;;;;;;2080437;28;20164;-70
2021/10/06 01:26:59;;;;;;;7.22;1.75;;;13.30;99.90;;;;;;2080436;28;20060;-70
2021/10/06 01:27:59;;;;;;;3.35;1.67;;;13.30;99.90;;;;;;2086267;28;20506;-70
2021/10/06 01:29:00;;;;;;;4.35;1.90;;;13.30;99.90;;;;;;2082356;28;20436;-69
2021/10/06 01:30:00;;;;;;;7.38;1.50;;;13.30;99.90;;;;;;2080226;28;20096;-70
2021/10/06 01:31:01;;;;;;;7.35;1.80;;;13.30;99.90;;;;;;2080586;28;20112;-70
2021/10/06 01:32:13;;;;;;;5.28;1.55;;;13.30;99.90;;;;;;2080194;28;20072;-70
2021/10/06 01:33:13;;;;;;;4.93;1.80;;;13.20;99.90;;;;;;2085443;28;20013;-70
2021/10/06 01:34:17;;;;;;;2.80;1.42;;;13.20;99.90;;;;;;2080248;28;20079;-70
2021/10/06 01:35:18;;;;;;;6.88;1.67;;;13.20;99.90;;;;;;2084159;28;20028;-70
2021/10/06 01:36:18;;;;;;;3.60;1.42;;;13.20;99.90;;;;;;2085656;28;20108;-69
2021/10/06 01:37:19;;;;;;;4.00;1.83;;;13.20;99.90;;;;;;2086068;28;20487;-69
2021/10/06 01:38:20;;;;;;;5.97;1.92;;;13.20;99.90;;;;;;2085761;28;20028;-70
2021/10/06 01:39:22;;;;;;;5.93;1.70;;;13.20;99.90;;;;;;2081563;28;20025;-70
2021/10/06 01:40:23;;;;;;;5.30;1.73;;;13.20;99.90;;;;;;2080114;28;20033;-69
2021/10/06 01:41:23;;;;;;;4.75;1.67;;;13.20;99.90;;;;;;2080537;28;20108;-69
2021/10/06 01:42:24;;;;;;;4.60;1.45;;;13.20;99.90;;;;;;2079573;28;20018;-70
2021/10/06 01:43:25;;;;;;;3.53;1.40;;;13.20;99.90;;;;;;2079389;28;20022;-69
2021/10/06 01:44:26;;;;;;;6.55;1.70;;;13.20;99.90;;;;;;2080445;28;20618;-70
2021/10/06 01:45:28;;;;;;;8.40;1.98;;;13.10;99.90;;;;;;2081446;28;20017;-70
2021/10/06 01:46:29;;;;;;;6.53;1.95;;;13.10;99.90;;;;;;2082789;28;20464;-70
2021/10/06 01:47:42;;;;;;;6.20;1.73;;;13.10;99.90;;;;;;2088018;28;20527;-69
2021/10/06 01:48:42;;;;;;;6.85;1.67;;;13.10;99.90;;;;;;2084697;28;20021;-70
2021/10/06 01:49:43;;;;;;;8.65;2.33;;;13.20;99.90;;;;;;2086713;28;20715;-69
2021/10/06 01:50:44;;;;;;;6.32;1.67;;;13.20;99.90;;;;;;2087605;28;20033;-69
2021/10/06 01:51:44;;;;;;;6.10;2.00;;;13.10;99.90;;;;;;2082236;28;20032;-69
2021/10/06 01:52:45;;;;;;;5.72;1.98;;;13.10;99.90;;;;;;2084828;28;20473;-69
2021/10/06 01:53:45;;;;;;;7.50;1.55;;;13.10;99.90;;;;;;2080769;28;20092;-69
2021/10/06 01:54:46;;;;;;;4.03;1.50;;;13.10;99.90;;;;;;2082656;28;20065;-69
2021/10/06 01:55:47;;;;;;;6.60;1.48;;;13.10;99.90;;;;;;2080057;28;20121;-70
2021/10/06 01:56:48;;;;;;;7.70;1.73;;;13.10;99.90;;;;;;2083251;28;20536;-70
2021/10/06 01:57:48;;;;;;;4.30;1.77;;;13.10;99.90;;;;;;2086515;28;20028;-69
2021/10/06 01:58:50;;;;;;;4.38;1.42;;;13.10;99.90;;;;;;2083978;28;20080;-69
2021/10/06 01:59:50;;;;;;;5.28;2.03;;;13.10;99.90;;;;;;2085153;28;20061;-69
2021/10/06 02:00:51;;;;;;;6.28;1.63;;;13.10;99.90;;;;;;2093493;28;20504;-70
2021/10/06 02:01:51;;;;;;;5.28;1.55;;;13.10;99.90;;;;;;2097137;28;20027;-70
2021/10/06 02:02:52;;;;;;;5.93;1.55;;;13.10;99.90;;;;;;2088378;28;20104;-70
2021/10/06 02:03:53;;;;;;;5.25;1.60;;;13.10;99.90;;;;;;2089845;28;20025;-70
2021/10/06 02:04:53;;;;;;;5.07;1.63;;;13.10;99.90;;;;;;2081593;28;20466;-70
2021/10/06 02:05:54;;;;;;;5.63;1.80;;;13.10;99.90;;;;;;2081320;28;20033;-70
2021/10/06 02:06:55;;;;;;;5.65;2.08;;;13.10;99.90;;;;;;2081312;28;20536;-70
2021/10/06 02:07:55;;;;;;;5.55;2.00;;;13.00;99.90;;;;;;2085801;28;20025;-69
2021/10/06 02:08:56;;;;;;;7.10;1.88;;;13.00;99.90;;;;;;2082002;28;20485;-70
2021/10/06 02:09:56;;;;;;;6.35;1.85;;;13.00;99.90;;;;;;2088017;28;20063;-70
2021/10/06 02:10:57;;;;;;;6.38;2.10;;;13.00;99.90;;;;;;2082565;28;20535;-69
2021/10/06 02:11:57;;;;;;;8.88;1.92;;;13.00;99.90;;;;;;2081564;28;20107;-69
2021/10/06 02:12:59;;;;;;;5.95;1.50;;;13.00;99.90;;;;;;2089131;28;20029;-69
2021/10/06 02:13:59;;;;;;;5.00;2.20;;;13.00;99.90;;;;;;2089426;28;20021;-69
2021/10/06 02:15:01;;;;;;;7.50;2.30;;;13.00;99.90;;;;;;2086974;28;20020;-70
2021/10/06 02:16:01;;;;;;;6.15;2.10;;;13.00;99.90;;;;;;2085504;28;20032;-70
2021/10/06 02:17:02;;;;;;;10.75;1.98;;;13.00;99.90;;;;;;2087920;28;20032;-70
2021/10/06 02:18:03;;;;;;;5.18;1.95;;;13.00;99.90;;;;;;2081269;28;20025;-70
2021/10/06 02:19:03;;;;;;;7.72;1.73;;;13.00;99.90;;;;;;2080834;28;20096;-70
2021/10/06 02:20:05;;;;;;;6.35;1.95;;;12.90;99.90;;;;;;2084466;28;20017;-70
2021/10/06 02:21:07;;;;;;;3.90;1.77;;;13.00;99.90;;;;;;2072481;28;20062;-69
2021/10/06 02:22:07;;;;;;;3.90;1.90;;;12.90;99.90;;;;;;2080608;28;20014;-69
2021/10/06 02:23:08;;;;;;;7.85;1.95;;;12.90;99.90;;;;;;2089470;28;20021;-70
2021/10/06 02:24:09;;;;;;;7.10;1.95;;;13.00;99.90;;;;;;2082701;28;20028;-69
2021/10/06 02:25:11;;;;;;;5.60;1.70;;;12.90;99.90;;;;;;2081335;28;20104;-70
2021/10/06 02:26:11;;;;;;;7.22;1.77;;;13.00;99.90;;;;;;2081309;28;20482;-69
2021/10/06 02:27:12;;;;;;;7.03;1.65;;;12.90;99.90;;;;;;2081494;28;20366;-70
2021/10/06 02:28:13;;;;;;;6.35;1.70;;;12.90;99.90;;;;;;2080635;28;20021;-69
2021/10/06 02:29:14;;;;;;;5.70;1.92;;;13.00;99.90;;;;;;2089556;28;20381;-69
2021/10/06 02:30:15;;;;;;;9.07;1.92;;;12.90;99.90;;;;;;2083605;28;20259;-69
2021/10/06 02:31:16;;;;;;;8.43;2.45;;;13.00;99.90;;;;;;2081439;28;20032;-70
2021/10/06 02:32:17;;;;;;;4.25;1.75;;;13.00;99.90;;;;;;2080446;28;20489;-69
2021/10/06 02:33:17;;;;;;;5.90;1.67;;;13.00;99.90;;;;;;2084343;28;20072;-70
2021/10/06 02:34:18;;;;;;;6.55;2.33;;;13.00;99.90;;;;;;2081267;28;20025;-70
2021/10/06 02:35:18;;;;;;;5.63;1.70;;;13.00;99.90;;;;;;2080957;28;20021;-70
2021/10/06 02:36:19;;;;;;;7.07;1.83;;;13.00;99.90;;;;;;2084414;28;20419;-70
2021/10/06 02:37:19;;;;;;;7.25;2.38;;;12.90;99.90;;;;;;2085581;28;20017;-69
2021/10/06 02:38:20;;;;;;;7.05;2.10;;;12.90;99.90;;;;;;2085334;28;20021;-69
2021/10/06 02:39:20;;;;;;;7.25;2.00;;;13.00;99.90;;;;;;2081120;28;20025;-69
2021/10/06 02:40:21;;;;;;;8.38;2.88;;;12.90;99.90;;;;;;2086935;28;20040;-69
2021/10/06 02:41:22;;;;;;;4.40;1.98;;;12.90;99.90;;;;;;2087626;28;20016;-70
2021/10/06 02:42:23;;;;;;;5.13;1.98;;;12.90;99.90;;;;;;2081095;28;20468;-69
2021/10/06 02:43:23;;;;;;;4.28;1.77;;;12.90;99.90;;;;;;2081060;28;20481;-69
2021/10/06 02:44:24;;;;;;;7.70;2.10;;;12.90;99.90;;;;;;2081082;28;20033;-69
2021/10/06 02:45:24;;;;;;;5.57;1.58;;;12.90;99.90;;;;;;2081435;28;20380;-69
2021/10/06 02:46:25;;;;;;;5.05;1.70;;;12.90;99.90;;;;;;2081184;28;20028;-70
2021/10/06 02:47:25;;;;;;;4.38;2.28;;;13.00;99.90;;;;;;2081261;28;20454;-69
2021/10/06 02:48:26;;;;;;;7.20;2.17;;;13.00;99.90;;;;;;2080409;28;20544;-69
2021/10/06 02:49:27;;;;;;;5.30;1.83;;;13.00;99.90;;;;;;2081156;28;20363;-70
2021/10/06 02:50:27;;;;;;;10.20;2.08;;;12.90;99.90;;;;;;2081986;28;20049;-69
2021/10/06 02:51:28;;;;;;;6.93;1.60;;;12.90;99.90;;;;;;2082188;28;20057;-70
2021/10/06 02:52:28;;;;;;;8.40;2.13;;;13.00;99.90;;;;;;2087814;28;20473;-69
2021/10/06 02:53:29;;;;;;;9.90;2.22;;;12.90;99.90;;;;;;2081497;28;20096;-69
2021/10/06 02:54:30;;;;;;;6.82;2.20;;;12.90;99.90;;;;;;2080764;28;20366;-69
2021/10/06 02:55:30;;;;;;;5.50;1.90;;;12.90;99.90;;;;;;2081096;28;20032;-70
2021/10/06 02:56:31;;;;;;;4.55;1.95;;;12.90;99.90;;;;;;2080979;28;20111;-70
2021/10/06 02:57:31;;;;;;;9.25;2.10;;;12.90;99.90;;;;;;2085302;28;20033;-70
2021/10/06 02:58:32;;;;;;;8.48;1.98;;;12.90;99.90;;;;;;2080566;28;20087;-70
2021/10/06 02:59:34;;;;;;;6.75;2.17;;;12.90;99.90;;;;;;2080763;28;20036;-69
2021/10/06 03:00:34;;;;;;;4.47;1.90;;;12.90;99.90;;;;;;2088125;28;20025;-69
2021/10/06 03:01:35;;;;;;;9.00;2.35;;;12.80;99.90;;;;;;2081056;28;20083;-70
2021/10/06 03:02:36;;;;;;;7.60;2.15;;;12.90;99.90;;;;;;2080297;28;20695;-69
2021/10/06 03:03:37;;;;;;;6.60;2.05;;;12.90;99.90;;;;;;2080287;28;20053;-70
2021/10/06 03:04:38;;;;;;;9.05;2.50;;;12.90;99.90;;;;;;2083426;28;20039;-69
2021/10/06 03:05:38;;;;;;;6.10;2.05;;;12.90;99.90;;;;;;2087291;28;20103;-69
2021/10/06 03:06:39;;;;;;;6.95;2.15;;;12.90;99.90;;;;;;2080203;28;20032;-70
2021/10/06 03:07:40;;;;;;;6.40;1.90;;;12.90;99.90;;;;;;2083847;28;20109;-70
2021/10/06 03:08:41;;;;;;;6.20;2.03;;;12.80;99.90;;;;;;2079010;28;20195;-70
2021/10/06 03:09:41;;;;;;;6.90;2.00;;;12.90;99.90;;;;;;2079127;28;20045;-69
2021/10/06 03:10:42;;;;;;;7.18;1.75;;;12.80;99.90;;;;;;2084466;28;20056;-70
2021/10/06 03:11:43;;;;;;;10.10;2.15;;;12.90;99.90;;;;;;2079126;28;20030;-69
2021/10/06 03:12:44;;;;;;;8.95;2.13;;;12.90;99.90;;;;;;2079725;28;20030;-70
2021/10/06 03:13:45;;;;;;;9.48;1.98;;;12.90;99.90;;;;;;2079714;28;20509;-69
2021/10/06 03:14:45;;;;;;;8.73;2.00;;;12.90;99.90;;;;;;2079848;28;20041;-70
2021/10/06 03:15:46;;;;;;;7.75;2.17;;;12.90;99.90;;;;;;2078943;28;20718;-69
2021/10/06 03:16:46;;;;;;;5.28;1.75;;;12.90;99.90;;;;;;2079251;28;20071;-70
2021/10/06 03:17:47;;;;;;;7.07;2.00;;;12.90;99.90;;;;;;2079593;28;20037;-69
2021/10/06 03:18:47;;;;;;;6.30;2.10;;;12.90;99.90;;;;;;2079479;28;20506;-69
2021/10/06 03:19:48;;;;;;;8.90;2.03;;;13.00;99.90;;;;;;2079585;28;20029;-69
2021/10/06 03:20:48;;;;;;;9.52;2.30;;;12.90;99.90;;;;;;2079264;28;20021;-70
2021/10/06 03:21:49;;;;;;;7.85;2.55;;;12.90;99.90;;;;;;2079658;28;20029;-70
2021/10/06 03:22:49;;;;;;;7.28;2.28;;;13.00;99.90;;;;;;2079795;28;20026;-69
2021/10/06 03:23:50;;;;;;;9.77;2.40;;;13.00;99.90;;;;;;2079733;28;20483;-70
2021/10/06 03:24:51;;;;;;;7.40;1.80;;;13.00;99.90;;;;;;2079783;28;20056;-70
2021/10/06 03:25:51;;;;;;;7.35;2.17;;;13.00;99.90;;;;;;2079391;28;20030;-70
2021/10/06 03:26:52;;;;;;;6.85;2.35;;;13.00;99.90;;;;;;2079810;28;20041;-70
2021/10/06 03:27:52;;;;;;;6.20;2.33;;;13.00;99.90;;;;;;2079664;28;20029;-70
2021/10/06 03:28:53;;;;;;;15.23;2.65;;;13.00;99.90;;;;;;2079303;28;20026;-70
2021/10/06 03:29:53;;;;;;;8.57;2.60;;;13.00;99.90;;;;;;2079392;28;20116;-70
2021/10/06 03:30:54;;;;;;;6.20;2.38;;;13.00;99.90;;;;;;2082546;28;20511;-70
2021/10/06 03:31:56;;;;;;;6.78;2.10;;;13.00;99.90;;;;;;2079653;28;20505;-69
2021/10/06 03:32:56;;;;;;;10.93;2.42;;;13.00;99.90;;;;;;2080992;28;20030;-69
2021/10/06 03:33:59;;;;;;;8.98;2.30;;;13.00;99.90;;;;;;2086155;28;20655;-69
2021/10/06 03:35:00;;;;;;;6.75;2.63;;;13.00;99.90;;;;;;2083649;28;20447;-69
2021/10/06 03:36:00;;;;;;;9.63;2.38;;;13.00;99.90;;;;;;2080851;28;20048;-70
2021/10/06 03:37:01;;;;;;;9.45;1.60;;;13.00;99.90;;;;;;2084492;28;20113;-70
2021/10/06 03:38:02;;;;;;;5.75;1.75;;;13.00;99.90;;;;;;2087864;28;20029;-70
2021/10/06 03:39:03;;;;;;;10.52;2.85;;;13.00;99.90;;;;;;2079038;28;20026;-69
2021/10/06 03:40:06;;;;;;;7.03;1.85;;;13.00;99.90;;;;;;2080643;28;20030;-69
2021/10/06 03:41:07;;;;;;;11.23;2.28;;;13.00;99.90;;;;;;2085105;28;20036;-70
2021/10/06 03:42:07;;;;;;;7.07;2.40;;;13.00;99.90;;;;;;2081355;28;20064;-69
2021/10/06 03:43:08;;;;;;;7.97;2.00;;;13.00;99.90;;;;;;2079251;28;20500;-70
2021/10/06 03:44:08;;;;;;;7.05;1.98;;;13.00;99.90;;;;;;2079875;28;20079;-70
2021/10/06 03:45:11;;;;;;;8.70;2.10;;;13.00;99.90;;;;;;2080880;28;20022;-70
2021/10/06 03:46:12;;;;;;;10.23;1.92;;;13.00;99.90;;;;;;2081369;28;20101;-70
2021/10/06 03:47:13;;;;;;;7.20;2.45;;;13.00;99.90;;;;;;2081200;28;20025;-70
2021/10/06 03:48:13;;;;;;;8.90;2.20;;;13.00;99.90;;;;;;2084282;28;20063;-70
2021/10/06 03:49:14;;;;;;;6.32;1.92;;;13.00;99.90;;;;;;2088367;28;20017;-69
2021/10/06 03:50:15;;;;;;;10.48;1.98;;;13.00;99.90;;;;;;2080697;28;20028;-70
2021/10/06 03:51:16;;;;;;;3.88;2.03;;;13.00;99.90;;;;;;2080908;28;20018;-70
2021/10/06 03:52:16;;;;;;;5.38;2.33;;;13.00;99.90;;;;;;2081437;28;20036;-70
2021/10/06 03:53:17;;;;;;;5.40;1.80;;;13.00;99.90;;;;;;2081220;28;20112;-70
2021/10/06 03:54:17;;;;;;;4.07;1.55;;;13.00;99.90;;;;;;2081116;28;20018;-70
2021/10/06 03:55:18;;;;;;;8.18;2.40;;;13.10;99.90;;;;;;2080875;28;20464;-69
2021/10/06 03:56:19;;;;;;;8.45;2.55;;;13.10;99.90;;;;;;2081245;28;20461;-70
2021/10/06 03:57:19;;;;;;;6.88;2.00;;;13.10;99.90;;;;;;2084772;28;20407;-70
2021/10/06 03:58:20;;;;;;;8.38;2.03;;;13.00;99.90;;;;;;2082395;28;20025;-70
2021/10/06 03:59:20;;;;;;;6.57;1.70;;;13.10;99.90;;;;;;2085670;28;20025;-70
2021/10/06 04:00:21;;;;;;;9.27;1.98;;;13.10;99.90;;;;;;2089379;28;20078;-69
2021/10/06 04:01:22;;;;;;;10.45;2.88;;;13.10;99.90;;;;;;2081116;28;20029;-70
2021/10/06 04:02:22;;;;;;;5.35;1.80;;;13.10;99.90;;;;;;2081244;28;20021;-70
2021/10/06 04:03:23;;;;;;;6.50;2.17;;;13.10;99.90;;;;;;2080790;28;20021;-70
2021/10/06 04:04:24;;;;;;;5.78;1.58;;;13.10;99.90;;;;;;2081429;28;20044;-70
2021/10/06 04:05:25;;;;;;;5.25;1.85;;;13.20;99.90;;;;;;2080905;28;20117;-69
2021/10/06 04:06:26;;;;;;;5.57;1.63;;;13.20;99.90;;;;;;2081057;28;20018;-70
2021/10/06 04:07:27;;;;;;;5.47;2.13;;;13.20;99.90;;;;;;2085416;28;20029;-70
2021/10/06 04:08:27;;;;;;;9.43;2.00;;;13.20;99.90;;;;;;2080589;28;20097;-70
2021/10/06 04:09:28;;;;;;;11.10;2.20;;;13.20;99.90;;;;;;2082095;28;20018;-70
2021/10/06 04:10:29;;;;;;;4.93;1.70;;;13.20;99.90;;;;;;2088561;28;20423;-70
2021/10/06 04:11:30;;;;;;;7.50;2.03;;;13.20;99.90;;;;;;2081032;28;20022;-70
2021/10/06 04:12:31;;;;;;;6.72;2.08;;;13.20;99.90;;;;;;2081067;28;20041;-70
2021/10/06 04:13:31;;;;;;;6.95;1.92;;;13.20;99.90;;;;;;2081060;28;20041;-70
2021/10/06 04:14:32;;;;;;;6.60;2.00;;;13.20;99.90;;;;;;2080931;28;20100;-70
2021/10/06 04:15:33;;;;;;;7.22;1.90;;;13.20;99.90;;;;;;2082427;28;20033;-70
2021/10/06 04:16:34;;;;;;;7.80;2.17;;;13.30;99.90;;;;;;2080805;28;20029;-70
2021/10/06 04:17:35;;;;;;;6.35;1.90;;;13.30;99.90;;;;;;2081169;28;20037;-70
2021/10/06 04:18:35;;;;;;;12.95;2.03;;;13.20;99.90;;;;;;2080200;28;20100;-69
2021/10/06 04:19:36;;;;;;;6.00;1.70;;;13.20;99.90;;;;;;2085643;28;20037;-70
2021/10/06 04:20:37;;;;;;;7.50;1.95;;;13.30;99.90;;;;;;2082798;28;20065;-70
2021/10/06 04:21:37;;;;;;;7.28;2.08;;;13.30;99.90;;;;;;2087279;28;20029;-70
2021/10/06 04:22:38;;;;;;;8.32;2.30;;;13.30;99.90;;;;;;2088611;28;20064;-69
2021/10/06 04:23:38;;;;;;;7.80;2.03;;;13.30;99.90;;;;;;2086211;28;20035;-69
2021/10/06 04:24:39;;;;;;;6.90;1.98;;;13.30;99.90;;;;;;2088152;28;20033;-70
2021/10/06 04:25:40;;;;;;;4.40;1.40;;;13.30;99.90;;;;;;2082960;28;20374;-70
2021/10/06 04:26:41;;;;;;;8.95;2.28;;;13.30;99.90;;;;;;2094352;28;20063;-70
2021/10/06 04:27:42;;;;;;;6.38;1.55;;;13.30;99.90;;;;;;2086399;28;20032;-70
2021/10/06 04:28:42;;;;;;;5.78;1.65;;;13.40;99.90;;;;;;2083147;28;20024;-70
2021/10/06 04:29:43;;;;;;;7.95;2.20;;;13.30;99.90;;;;;;2087482;28;20099;-69
2021/10/06 04:30:43;;;;;;;7.93;1.90;;;13.30;99.90;;;;;;2087695;28;20108;-69
2021/10/06 04:31:44;;;;;;;5.82;2.05;;;13.30;99.90;;;;;;2084158;28;20385;-69
2021/10/06 04:32:45;;;;;;;8.45;2.20;;;13.30;99.90;;;;;;2083181;28;20021;-70
2021/10/06 04:33:48;;;;;;;8.40;2.30;;;13.30;99.90;;;;;;2086448;28;20020;-69
2021/10/06 04:34:49;;;;;;;5.28;1.90;;;13.30;99.90;;;;;;2081723;28;20037;-70
2021/10/06 04:35:50;;;;;;;8.40;2.13;;;13.30;99.90;;;;;;2081524;28;20035;-70
2021/10/06 04:36:50;;;;;;;8.75;2.10;;;13.40;99.90;;;;;;2083283;28;20536;-69
2021/10/06 04:37:51;;;;;;;7.10;2.17;;;13.40;99.90;;;;;;2082949;28;20024;-70
2021/10/06 04:38:51;;;;;;;15.88;2.38;;;13.40;99.90;;;;;;2083636;28;20070;-69
2021/10/06 04:39:52;;;;;;;5.30;1.90;;;13.40;99.90;;;;;;2084154;28;20115;-69
2021/10/06 04:40:53;;;;;;;9.05;2.50;;;13.40;99.90;;;;;;2082651;28;20017;-69
2021/10/06 04:41:53;;;;;;;5.75;1.98;;;13.30;99.90;;;;;;2085955;28;20020;-69
2021/10/06 04:42:54;;;;;;;6.22;1.92;;;13.40;99.90;;;;;;2080599;28;20018;-70
2021/10/06 04:43:54;;;;;;;5.10;1.88;;;13.40;99.90;;;;;;2087381;28;20074;-70
2021/10/06 04:44:55;;;;;;;13.27;2.47;;;13.30;99.90;;;;;;2082598;28;20067;-69
2021/10/06 04:45:56;;;;;;;7.93;2.05;;;13.40;99.90;;;;;;2081797;28;20543;-70
2021/10/06 04:46:56;;;;;;;4.70;1.92;;;13.40;99.90;;;;;;2085117;28;20425;-69
2021/10/06 04:47:57;;;;;;;8.38;2.22;;;13.40;99.90;;;;;;2082646;28;20064;-70
2021/10/06 04:48:58;;;;;;;5.18;1.70;;;13.40;99.90;;;;;;2083361;28;20037;-69
2021/10/06 04:49:58;;;;;;;6.32;1.85;;;13.40;99.90;;;;;;2082987;28;20017;-69
2021/10/06 04:50:59;;;;;;;7.03;1.73;;;13.40;99.90;;;;;;2081288;28;20524;-70
2021/10/06 04:51:59;;;;;;;7.53;2.28;;;13.40;99.90;;;;;;2082516;28;20026;-69
2021/10/06 04:53:00;;;;;;;6.05;2.10;;;13.40;99.90;;;;;;2081750;28;20033;-69
2021/10/06 04:54:01;;;;;;;5.68;1.92;;;13.40;99.90;;;;;;2081534;28;20045;-70
2021/10/06 04:55:03;;;;;;;5.53;1.92;;;13.40;99.90;;;;;;2081615;28;20654;-69
2021/10/06 04:56:03;;;;;;;8.35;2.15;;;13.40;99.90;;;;;;2087227;28;20026;-69
2021/10/06 04:57:04;;;;;;;9.07;1.90;;;13.40;99.90;;;;;;2087292;28;20096;-69
2021/10/06 04:58:05;;;;;;;7.60;2.15;;;13.40;99.90;;;;;;2084743;28;20041;-69
2021/10/06 04:59:05;;;;;;;5.80;1.50;;;13.50;99.90;;;;;;2082559;28;20462;-69
2021/10/06 05:00:06;;;;;;;7.60;2.00;;;13.40;99.90;;;;;;2081464;28;20033;-70
2021/10/06 05:01:07;;;;;;;11.43;1.88;;;13.50;99.90;;;;;;2081552;28;20075;-70
2021/10/06 05:02:08;;;;;;;8.00;1.98;;;13.40;99.90;;;;;;2082590;28;20017;-70
2021/10/06 05:03:13;;;;;;;4.38;1.73;;;13.40;99.90;;;;;;2081930;28;20104;-70
2021/10/06 05:04:14;;;;;;;8.40;2.45;;;13.40;99.90;;;;;;2081329;28;20209;-69
2021/10/06 05:05:15;;;;;;;6.88;1.85;;;13.50;99.90;;;;;;2081416;28;20119;-69
2021/10/06 05:06:15;;;;;;;8.82;2.00;;;13.40;99.90;;;;;;2081293;28;20021;-70
2021/10/06 05:07:16;;;;;;;7.30;1.90;;;13.50;99.90;;;;;;2082230;28;20595;-69
2021/10/06 05:08:16;;;;;;;10.27;2.40;;;13.50;99.90;;;;;;2081055;28;20026;-69
2021/10/06 05:09:18;;;;;;;3.90;1.77;;;13.40;99.90;;;;;;2081442;28;20022;-70
2021/10/06 05:10:18;;;;;;;7.65;2.17;;;13.40;99.90;;;;;;2082309;28;20086;-69
2021/10/06 05:11:19;;;;;;;7.25;2.00;;;13.40;99.90;;;;;;2084096;28;20029;-70
2021/10/06 05:12:19;;;;;;;7.45;1.60;;;13.40;99.90;;;;;;2082314;28;20028;-69
2021/10/06 05:13:20;;;;;;;6.13;2.30;;;13.50;99.90;;;;;;2083601;28;20013;-69
2021/10/06 05:14:21;;;;;;;7.95;2.08;;;13.50;99.90;;;;;;2083229;28;20026;-69
2021/10/06 05:15:22;;;;;;;9.13;1.92;;;13.50;99.90;;;;;;2081738;28;20100;-69
2021/10/06 05:16:22;;;;;;;9.98;2.03;;;13.40;99.90;;;;;;2083288;28;20032;-69